createdAt,value
2018-07-04T00:00:18.586Z,79.91
2018-07-04T00:02:59.046Z,79.45
2018-07-04T00:05:39.697Z,80.24
2018-07-04T00:08:20.248Z,79.33
2018-07-04T00:11:00.710Z,79.74
2018-07-04T00:13:42.641Z,79.95
2018-07-04T00:16:23.084Z,80.60
2018-07-04T00:19:03.739Z,80.96
2018-07-04T00:21:44.245Z,81.58
2018-07-04T00:24:25.072Z,81.27
2018-07-04T00:27:05.952Z,81.99
2018-07-04T00:29:46.694Z,81.72
2018-07-04T00:32:27.214Z,82.12
2018-07-04T00:35:09.311Z,82.63
2018-07-04T00:37:49.948Z,81.66
2018-07-04T00:40:30.962Z,82.61
2018-07-04T00:43:11.526Z,82.95
2018-07-04T00:45:52.778Z,83.56
2018-07-04T00:48:33.273Z,83.43
2018-07-04T00:51:13.823Z,83.73
2018-07-04T00:53:54.501Z,84.02
2018-07-04T00:56:35.131Z,84.38
2018-07-04T00:59:15.694Z,84.15
2018-07-04T01:01:57.855Z,83.59
2018-07-04T01:04:38.259Z,83.51
2018-07-04T01:07:18.951Z,83.90
2018-07-04T01:09:59.348Z,83.88
2018-07-04T01:12:40.037Z,84.08
2018-07-04T01:15:20.395Z,84.40
2018-07-04T01:18:00.798Z,84.64
2018-07-04T01:20:46.704Z,83.75
2018-07-04T01:23:27.076Z,83.97
2018-07-04T01:26:07.714Z,83.86
2018-07-04T01:28:48.345Z,83.87
2018-07-04T01:31:28.976Z,83.88
2018-07-04T01:34:10.598Z,83.47
2018-07-04T01:36:51.087Z,83.57
2018-07-04T01:39:32.097Z,83.71
2018-07-04T01:42:12.659Z,83.89
2018-07-04T01:44:53.384Z,84.02
2018-07-04T01:47:34.037Z,83.26
2018-07-04T01:50:14.566Z,82.92
2018-07-04T01:52:54.889Z,82.66
2018-07-04T01:55:35.550Z,83.22
2018-07-04T01:58:16.214Z,82.95
2018-07-04T02:00:56.534Z,83.62
2018-07-04T02:03:37.126Z,83.79
2018-07-04T02:06:18.497Z,83.44
2018-07-04T02:08:59.093Z,83.48
2018-07-04T02:11:39.652Z,83.48
2018-07-04T02:14:20.394Z,83.62
2018-07-04T02:17:00.982Z,83.22
2018-07-04T02:19:41.691Z,83.43
2018-07-04T02:22:22.459Z,83.69
2018-07-04T02:25:03.089Z,83.37
2018-07-04T02:27:43.922Z,84.18
2018-07-04T02:30:24.340Z,83.68
2018-07-04T02:33:05.328Z,83.87
2018-07-04T02:35:45.863Z,83.35
2018-07-04T02:38:26.464Z,83.26
2018-07-04T02:41:07.126Z,84.39
2018-07-04T02:43:47.947Z,84.43
2018-07-04T02:46:33.862Z,84.09
2018-07-04T02:49:14.445Z,83.91
2018-07-04T02:51:55.034Z,83.48
2018-07-04T02:54:35.564Z,83.65
2018-07-04T02:57:16.185Z,83.50
2018-07-04T02:59:56.870Z,83.95
2018-07-04T03:02:37.542Z,83.64
2018-07-04T03:05:19.233Z,83.80
2018-07-04T03:07:59.856Z,84.28
2018-07-04T03:10:40.527Z,84.24
2018-07-04T03:13:21.066Z,84.77
2018-07-04T03:16:02.739Z,84.84
2018-07-04T03:18:43.427Z,85.01
2018-07-04T03:21:24.245Z,84.42
2018-07-04T03:24:05.100Z,84.10
2018-07-04T03:26:46.472Z,84.30
2018-07-04T03:29:27.094Z,84.23
2018-07-04T03:32:07.679Z,84.89
2018-07-04T03:34:48.373Z,84.21
2018-07-04T03:37:29.730Z,84.48
2018-07-04T03:40:10.674Z,84.93
2018-07-04T03:42:51.230Z,84.66
2018-07-04T03:45:31.833Z,85.18
2018-07-04T03:48:12.342Z,85.82
2018-07-04T03:50:52.797Z,84.99
2018-07-04T03:53:33.363Z,84.96
2018-07-04T03:56:13.963Z,84.50
2018-07-04T03:58:56.015Z,84.50
2018-07-04T04:01:36.428Z,84.38
2018-07-04T04:04:17.256Z,83.90
2018-07-04T04:06:57.719Z,83.72
2018-07-04T04:09:38.313Z,83.89
2018-07-04T04:12:18.786Z,84.17
2018-07-04T04:15:00.101Z,84.01
2018-07-04T04:17:40.749Z,83.72
2018-07-04T04:20:22.878Z,84.06
2018-07-04T04:23:03.341Z,83.95
2018-07-04T04:25:44.614Z,83.48
2018-07-04T04:28:25.455Z,83.16
2018-07-04T04:31:06.566Z,82.79
2018-07-04T04:33:47.240Z,82.74
2018-07-04T04:36:27.990Z,81.63
2018-07-04T04:39:08.712Z,82.47
2018-07-04T04:41:49.513Z,81.73
2018-07-04T04:44:29.976Z,81.34
2018-07-04T04:47:11.991Z,81.37
2018-07-04T04:49:52.553Z,80.75
2018-07-04T04:52:33.140Z,80.05
2018-07-04T04:55:14.252Z,79.71
2018-07-04T04:57:57.733Z,79.33
2018-07-04T05:00:38.553Z,79.91
2018-07-04T05:03:19.334Z,79.65
2018-07-04T05:05:59.840Z,78.83
2018-07-04T05:08:41.191Z,78.78
2018-07-04T05:11:22.149Z,77.51
2018-07-04T05:14:03.652Z,75.36
2018-07-04T05:16:44.547Z,75.29
2018-07-04T05:19:25.320Z,75.35
2018-07-04T05:22:05.746Z,74.07
2018-07-04T05:24:47.469Z,73.03
2018-07-04T05:27:28.193Z,72.20
2018-07-04T05:30:09.082Z,71.79
2018-07-04T05:32:49.889Z,71.85
2018-07-04T05:35:30.531Z,71.19
2018-07-04T05:38:11.282Z,70.85
2018-07-04T05:40:52.748Z,70.75
2018-07-04T05:43:33.119Z,71.13
2018-07-04T05:46:15.130Z,70.95
2018-07-04T05:48:55.541Z,70.54
2018-07-04T05:51:36.453Z,69.64
2018-07-04T05:54:17.245Z,69.45
2018-07-04T05:56:58.210Z,69.56
2018-07-04T05:59:38.783Z,68.46
2018-07-04T06:02:19.531Z,68.79
2018-07-04T06:05:00.146Z,68.12
2018-07-04T06:07:40.917Z,68.41
2018-07-04T06:10:21.691Z,68.17
2018-07-04T06:13:02.161Z,67.19
2018-07-04T06:15:42.867Z,67.64
2018-07-04T06:18:23.760Z,68.03
2018-07-04T06:21:04.268Z,67.66
2018-07-04T06:23:45.342Z,67.38
2018-07-04T06:26:26.010Z,66.87
2018-07-04T06:29:07.382Z,68.87
2018-07-04T06:31:48.198Z,69.17
2018-07-04T06:34:28.826Z,68.61
2018-07-04T06:37:09.687Z,67.56
2018-07-04T06:39:38.147Z,67.02
2018-07-04T06:42:06.456Z,66.92
2018-07-04T06:44:34.697Z,66.20
2018-07-04T06:47:03.092Z,66.71
2018-07-04T06:49:31.178Z,66.31
2018-07-04T06:51:59.276Z,65.51
2018-07-04T06:54:27.436Z,66.37
2018-07-04T06:56:55.522Z,65.74
2018-07-04T06:59:23.794Z,65.73
2018-07-04T07:01:52.035Z,65.17
2018-07-04T07:04:32.585Z,64.69
2018-07-04T07:07:13.286Z,64.87
2018-07-04T07:09:53.952Z,64.19
2018-07-04T07:12:34.976Z,64.31
2018-07-04T07:15:15.572Z,65.05
2018-07-04T07:17:56.034Z,63.85
2018-07-04T07:20:36.973Z,63.57
2018-07-04T07:23:17.998Z,63.39
2018-07-04T07:25:58.570Z,63.72
2018-07-04T07:28:39.648Z,63.89
2018-07-04T07:31:20.124Z,63.95
2018-07-04T07:34:00.913Z,64.08
2018-07-04T07:36:41.523Z,64.72
2018-07-04T07:39:22.908Z,65.54
2018-07-04T07:42:04.017Z,65.32
2018-07-04T07:44:45.684Z,65.47
2018-07-04T07:47:26.576Z,66.02
2018-07-04T07:50:08.760Z,64.55
2018-07-04T07:52:49.773Z,64.82
2018-07-04T07:55:30.692Z,65.37
2018-07-04T07:58:11.515Z,65.25
2018-07-04T08:00:52.006Z,66.65
2018-07-04T08:03:32.708Z,66.86
2018-07-04T08:06:13.388Z,66.37
2018-07-04T08:08:54.137Z,66.78
2018-07-04T08:11:35.427Z,67.01
2018-07-04T08:14:16.180Z,66.01
2018-07-04T08:16:57.894Z,65.97
2018-07-04T08:19:39.202Z,64.84
2018-07-04T08:22:21.078Z,65.93
2018-07-04T08:25:01.624Z,65.79
2018-07-04T08:27:43.893Z,65.83
2018-07-04T08:30:24.438Z,65.34
2018-07-04T08:33:05.742Z,65.90
2018-07-04T08:35:46.793Z,64.80
2018-07-04T08:38:28.030Z,64.35
2018-07-04T08:41:10.029Z,63.76
2018-07-04T08:43:51.287Z,64.07
2018-07-04T08:46:32.350Z,62.48
2018-07-04T08:49:13.338Z,62.28
2018-07-04T08:51:53.787Z,62.32
2018-07-04T08:54:34.651Z,63.56
2018-07-04T08:57:15.212Z,63.16
2018-07-04T08:59:55.802Z,63.84
2018-07-04T09:02:36.548Z,64.30
2018-07-04T09:05:17.417Z,64.34
2018-07-04T09:07:58.205Z,65.18
2018-07-04T09:10:38.978Z,64.79
2018-07-04T09:13:19.734Z,64.96
2018-07-04T09:16:00.265Z,64.16
2018-07-04T09:18:40.649Z,63.68
2018-07-04T09:21:21.684Z,63.49
2018-07-04T09:24:02.387Z,62.59
2018-07-04T09:26:42.702Z,62.39
2018-07-04T09:29:23.412Z,62.08
2018-07-04T09:32:04.086Z,61.67
2018-07-04T09:34:44.713Z,62.64
2018-07-04T09:37:25.626Z,62.20
2018-07-04T09:40:06.319Z,62.17
2018-07-04T09:42:48.094Z,62.20
2018-07-04T09:45:29.002Z,62.83
2018-07-04T09:48:10.361Z,63.02
2018-07-04T09:50:51.106Z,63.74
2018-07-04T09:53:32.337Z,64.11
2018-07-04T09:56:12.730Z,63.65
2018-07-04T09:58:53.826Z,63.65
2018-07-04T10:01:34.251Z,62.46
2018-07-04T10:04:14.816Z,62.11
2018-07-04T10:06:55.614Z,62.12
2018-07-04T10:09:38.509Z,61.32
2018-07-04T10:12:19.256Z,60.75
2018-07-04T10:15:01.276Z,59.06
2018-07-04T10:17:41.679Z,60.07
2018-07-04T10:20:24.328Z,60.31
2018-07-04T10:23:04.992Z,59.96
2018-07-04T10:25:45.962Z,58.31
2018-07-04T10:28:26.895Z,59.18
2018-07-04T10:31:07.614Z,58.44
2018-07-04T10:33:48.629Z,58.18
2018-07-04T10:36:29.738Z,58.04
2018-07-04T10:39:10.408Z,57.44
2018-07-04T10:41:52.269Z,57.75
2018-07-04T10:44:32.890Z,56.51
2018-07-04T10:47:14.561Z,55.52
2018-07-04T10:49:55.310Z,56.20
2018-07-04T10:52:35.867Z,56.16
2018-07-04T10:55:16.743Z,54.82
2018-07-04T10:57:57.587Z,55.12
2018-07-04T11:00:39.064Z,55.43
2018-07-04T11:03:19.783Z,55.91
2018-07-04T11:06:00.483Z,57.09
2018-07-04T11:08:41.186Z,56.55
2018-07-04T11:11:21.913Z,53.71
2018-07-04T11:14:02.806Z,53.34
2018-07-04T11:16:43.381Z,53.37
2018-07-04T11:19:24.391Z,52.55
2018-07-04T11:22:04.908Z,52.65
2018-07-04T11:24:46.333Z,52.08
2018-07-04T11:27:27.052Z,52.84
2018-07-04T11:30:08.435Z,51.95
2018-07-04T11:32:49.049Z,50.58
2018-07-04T11:35:30.857Z,49.78
2018-07-04T11:38:11.403Z,49.04
2018-07-04T11:40:52.855Z,48.80
2018-07-04T11:43:33.162Z,49.69
2018-07-04T11:46:01.348Z,49.86
2018-07-04T11:48:29.525Z,50.70
2018-07-04T11:50:57.851Z,52.25
2018-07-04T11:53:26.836Z,53.26
2018-07-04T11:55:55.002Z,52.97
2018-07-04T11:58:23.173Z,50.36
2018-07-04T12:00:51.480Z,50.34
2018-07-04T12:03:22.102Z,50.01
2018-07-04T12:06:04.369Z,50.50
2018-07-04T12:08:32.531Z,49.61
2018-07-04T12:11:00.692Z,50.35
2018-07-04T12:13:29.395Z,49.36
2018-07-04T12:15:57.594Z,48.24
2018-07-04T12:18:25.799Z,47.85
2018-07-04T12:20:54.920Z,49.07
2018-07-04T12:23:23.316Z,49.58
2018-07-04T12:25:51.687Z,49.53
2018-07-04T12:28:20.549Z,49.56
2018-07-04T12:30:50.036Z,49.71
2018-07-04T12:33:18.452Z,49.14
2018-07-04T12:35:46.986Z,50.99
2018-07-04T12:38:15.219Z,51.03
2018-07-04T12:40:43.370Z,51.07
2018-07-04T12:43:11.556Z,53.73
2018-07-04T12:45:39.826Z,52.86
2018-07-04T12:48:07.763Z,50.19
2018-07-04T12:50:36.180Z,46.82
2018-07-04T12:53:04.379Z,47.54
2018-07-04T12:56:47.969Z,46.82
2018-07-04T12:59:28.652Z,47.01
2018-07-04T13:02:09.477Z,45.87
2018-07-04T13:04:50.466Z,44.43
2018-07-04T13:07:31.334Z,46.18
2018-07-04T13:10:12.225Z,44.56
2018-07-04T13:12:53.746Z,44.29
2018-07-04T13:15:34.247Z,42.16
2018-07-04T13:18:14.888Z,42.49
2018-07-04T13:20:56.011Z,40.92
2018-07-04T13:23:37.704Z,41.34
2018-07-04T13:26:18.428Z,45.35
2018-07-04T13:29:00.253Z,45.89
2018-07-04T13:31:40.929Z,45.54
2018-07-04T13:34:21.799Z,46.05
2018-07-04T13:37:02.677Z,46.13
2018-07-04T13:39:43.361Z,44.32
2018-07-04T13:42:23.925Z,43.66
2018-07-04T13:45:04.690Z,42.28
2018-07-04T13:47:45.488Z,43.25
2018-07-04T13:50:27.393Z,44.05
2018-07-04T13:53:08.021Z,44.20
2018-07-04T13:55:49.002Z,42.30
2018-07-04T13:58:30.008Z,41.01
2018-07-04T14:01:10.496Z,40.16
2018-07-04T14:03:52.170Z,39.77
2018-07-04T14:06:34.109Z,39.64
2018-07-04T14:09:14.690Z,38.23
2018-07-04T14:11:55.720Z,38.93
2018-07-04T14:14:36.203Z,38.08
2018-07-04T14:17:17.033Z,40.13
2018-07-04T14:19:57.748Z,38.80
2018-07-04T14:22:39.523Z,37.49
2018-07-04T14:25:20.170Z,36.44
2018-07-04T14:28:00.634Z,37.35
2018-07-04T14:30:41.328Z,37.91
2018-07-04T14:33:22.096Z,36.47
2018-07-04T14:36:03.437Z,39.74
2018-07-04T14:38:45.023Z,38.89
2018-07-04T14:41:25.765Z,39.84
2018-07-04T14:44:07.088Z,41.80
2018-07-04T14:46:48.682Z,41.90
2018-07-04T14:49:29.344Z,39.50
2018-07-04T14:52:10.055Z,39.80
2018-07-04T14:54:50.601Z,40.97
2018-07-04T14:57:31.893Z,40.82
2018-07-04T15:00:12.832Z,39.77
2018-07-04T15:02:53.490Z,40.53
2018-07-04T15:05:34.488Z,42.32
2018-07-04T15:08:14.969Z,41.37
2018-07-04T15:10:56.906Z,39.35
2018-07-04T15:13:37.754Z,40.08
2018-07-04T15:16:18.592Z,39.61
2018-07-04T15:18:59.711Z,40.49
2018-07-04T15:21:40.290Z,41.74
2018-07-04T15:24:21.332Z,41.28
2018-07-04T15:27:02.450Z,40.16
2018-07-04T15:29:43.206Z,39.45
2018-07-04T15:32:24.098Z,39.39
2018-07-04T15:35:04.553Z,37.92
2018-07-04T15:37:45.030Z,38.76
2018-07-04T15:40:25.895Z,42.89
2018-07-04T15:43:07.056Z,42.61
2018-07-04T15:45:47.554Z,41.27
2018-07-04T15:48:28.305Z,40.50
2018-07-04T15:51:08.912Z,38.70
2018-07-04T15:53:49.692Z,37.15
2018-07-04T15:56:30.211Z,37.16
2018-07-04T15:59:12.751Z,37.72
2018-07-04T16:01:53.492Z,39.64
2018-07-04T16:04:35.359Z,39.90
2018-07-04T16:07:16.175Z,41.61
2018-07-04T16:09:58.208Z,42.05
2018-07-04T16:12:38.810Z,41.91
2018-07-04T16:15:20.327Z,41.46
2018-07-04T16:18:01.213Z,39.60
2018-07-04T16:20:42.758Z,38.80
2018-07-04T16:23:23.534Z,38.33
2018-07-04T16:26:04.292Z,39.70
2018-07-04T16:28:44.915Z,38.36
2018-07-04T16:31:25.782Z,38.22
2018-07-04T16:34:06.238Z,38.50
2018-07-04T16:36:46.933Z,38.03
2018-07-04T16:39:27.330Z,39.63
2018-07-04T16:42:07.924Z,38.68
2018-07-04T16:44:50.152Z,39.17
2018-07-04T16:47:31.052Z,40.11
2018-07-04T16:50:11.809Z,39.76
2018-07-04T16:52:52.581Z,40.10
2018-07-04T16:55:33.112Z,40.32
2018-07-04T16:58:14.619Z,39.55
2018-07-04T17:00:55.990Z,40.70
2018-07-04T17:03:36.747Z,41.78
2018-07-04T17:06:17.345Z,41.43
2018-07-04T17:08:58.622Z,41.98
2018-07-04T17:11:39.395Z,41.25
2018-07-04T17:14:20.260Z,41.86
2018-07-04T17:17:01.115Z,42.73
2018-07-04T17:19:42.156Z,42.43
2018-07-04T17:22:23.143Z,44.05
2018-07-04T17:25:03.822Z,42.58
2018-07-04T17:27:44.341Z,43.96
2018-07-04T17:30:26.492Z,45.13
2018-07-04T17:33:07.220Z,43.70
2018-07-04T17:35:47.832Z,44.38
2018-07-04T17:38:28.892Z,45.04
2018-07-04T17:41:10.803Z,46.97
2018-07-04T17:43:51.702Z,48.09
2018-07-04T17:46:32.453Z,49.45
2018-07-04T17:49:12.977Z,49.77
2018-07-04T17:51:54.498Z,50.81
2018-07-04T17:54:35.218Z,50.38
2018-07-04T17:57:17.291Z,48.85
2018-07-04T17:59:58.247Z,47.93
2018-07-04T18:02:38.822Z,47.07
2018-07-04T18:05:20.592Z,46.50
2018-07-04T18:08:02.704Z,46.61
2018-07-04T18:10:43.300Z,46.97
2018-07-04T18:13:24.515Z,46.80
2018-07-04T18:16:05.243Z,47.01
2018-07-04T18:18:46.135Z,47.83
2018-07-04T18:21:27.533Z,49.75
2018-07-04T18:24:09.250Z,49.46
2018-07-04T18:26:49.772Z,49.07
2018-07-04T18:29:31.084Z,49.10
2018-07-04T18:32:11.604Z,49.62
2018-07-04T18:34:52.507Z,50.41
2018-07-04T18:37:33.121Z,50.34
2018-07-04T18:40:14.520Z,50.34
2018-07-04T18:42:55.528Z,50.30
2018-07-04T18:45:36.048Z,50.92
2018-07-04T18:48:16.697Z,51.40
2018-07-04T18:50:58.956Z,52.33
2018-07-04T18:53:39.482Z,52.86
2018-07-04T18:56:20.667Z,53.17
2018-07-04T18:59:01.157Z,54.27
2018-07-04T19:01:42.716Z,54.63
2018-07-04T19:04:23.718Z,54.43
2018-07-04T19:07:05.317Z,54.61
2018-07-04T19:09:45.799Z,55.48
2018-07-04T19:12:28.290Z,56.85
2018-07-04T19:15:08.783Z,57.69
2018-07-04T19:17:50.146Z,59.67
2018-07-04T19:20:30.561Z,61.02
2018-07-04T19:23:11.880Z,62.75
2018-07-04T19:25:53.052Z,63.91
2018-07-04T19:28:34.386Z,64.89
2018-07-04T19:31:16.908Z,66.28
2018-07-04T19:33:57.831Z,65.67
2018-07-04T19:36:38.457Z,66.43
2018-07-04T19:39:20.247Z,67.74
2018-07-04T19:42:01.330Z,67.69
2018-07-04T19:44:42.207Z,68.39
2018-07-04T19:47:24.017Z,68.06
2018-07-04T19:50:04.623Z,68.81
2018-07-04T19:52:44.981Z,68.68
2018-07-04T19:55:25.844Z,68.57
2018-07-04T19:58:06.344Z,68.88
2018-07-04T20:00:46.797Z,68.93
2018-07-04T20:03:27.562Z,69.75
2018-07-04T20:06:08.620Z,70.02
2018-07-04T20:08:49.676Z,69.50
2018-07-04T20:11:30.387Z,70.42
2018-07-04T20:14:11.132Z,71.90
2018-07-04T20:16:51.810Z,72.01
2018-07-04T20:19:32.311Z,72.20
2018-07-04T20:22:12.786Z,72.02
2018-07-04T20:24:54.499Z,72.29
2018-07-04T20:27:35.112Z,73.24
2018-07-04T20:30:15.500Z,72.51
2018-07-04T20:32:56.941Z,73.72
2018-07-04T20:35:37.772Z,73.63
2018-07-04T20:38:19.210Z,74.30
2018-07-04T20:41:00.364Z,74.14
2018-07-04T20:43:42.035Z,74.73
2018-07-04T20:46:22.854Z,74.29
2018-07-04T20:49:04.204Z,75.07
2018-07-04T20:51:44.920Z,75.56
2018-07-04T20:54:25.853Z,75.70
2018-07-04T20:57:06.419Z,76.03
2018-07-04T20:59:46.824Z,76.59
2018-07-04T21:02:27.904Z,76.87
2018-07-04T21:05:08.625Z,76.45
2018-07-04T21:07:49.504Z,76.49
2018-07-04T21:10:30.947Z,76.50
2018-07-04T21:13:11.425Z,76.77
2018-07-04T21:15:52.263Z,76.81
2018-07-04T21:18:33.054Z,77.13
2018-07-04T21:21:14.301Z,77.46
2018-07-04T21:23:55.036Z,77.26
2018-07-04T21:26:35.667Z,77.08
2018-07-04T21:29:16.264Z,77.02
2018-07-04T21:31:57.309Z,77.20
2018-07-04T21:34:37.913Z,77.21
2018-07-04T21:37:18.455Z,77.12
2018-07-04T21:39:59.836Z,77.08
2018-07-04T21:42:40.540Z,77.61
2018-07-04T21:45:21.540Z,77.56
2018-07-04T21:48:02.599Z,77.51
2018-07-04T21:50:43.303Z,77.38
2018-07-04T21:53:24.042Z,77.49
2018-07-04T21:56:04.722Z,77.25
2018-07-04T21:58:46.590Z,77.50
2018-07-04T22:01:27.435Z,77.54
2018-07-04T22:04:08.252Z,77.97
2018-07-04T22:06:48.724Z,77.95
2018-07-04T22:09:29.249Z,77.65
2018-07-04T22:12:09.661Z,77.38
2018-07-04T22:14:50.406Z,77.05
2018-07-04T22:17:31.170Z,76.50
2018-07-04T22:20:11.805Z,76.66
2018-07-04T22:22:52.348Z,77.03
2018-07-04T22:25:33.443Z,76.88
2018-07-04T22:28:13.726Z,76.83
2018-07-04T22:30:54.844Z,77.25
2018-07-04T22:33:37.250Z,77.36
2018-07-04T22:36:18.402Z,76.51
2018-07-04T22:38:58.887Z,76.72
2018-07-04T22:41:39.761Z,76.33
2018-07-04T22:44:20.363Z,75.90
2018-07-04T22:47:01.042Z,77.01
2018-07-04T22:49:41.494Z,76.40
2018-07-04T22:52:23.842Z,76.24
2018-07-04T22:55:04.239Z,76.41
2018-07-04T22:57:44.965Z,76.10
2018-07-04T23:00:26.874Z,75.73
2018-07-04T23:03:07.357Z,75.84
2018-07-04T23:05:47.930Z,75.82
2018-07-04T23:08:29.456Z,75.46
2018-07-04T23:11:09.918Z,75.46
2018-07-04T23:13:51.845Z,75.38
2018-07-04T23:16:32.418Z,75.39
2018-07-04T23:19:13.105Z,75.33
2018-07-04T23:21:53.821Z,75.72
2018-07-04T23:24:34.749Z,75.34
2018-07-04T23:27:15.411Z,75.53
2018-07-04T23:29:56.954Z,75.31
2018-07-04T23:32:37.429Z,74.98
2018-07-04T23:35:19.042Z,74.94
2018-07-04T23:37:59.554Z,74.64
2018-07-04T23:40:40.091Z,74.83
2018-07-04T23:43:21.239Z,74.63
2018-07-04T23:46:02.697Z,74.88
2018-07-04T23:48:43.273Z,74.60
2018-07-04T23:51:24.793Z,74.53
2018-07-04T23:54:05.201Z,73.90
2018-07-04T23:56:47.026Z,73.95
2018-07-04T23:59:27.775Z,74.06
